Latest Coastal Weather Observations for Mandurah

IDW60701

Issued at 3:52 pm WST Friday 29 July 2016 (issued every 10 minutes, with the page automatically refreshed every 10 minutes)

About coastal observations | Map of coastal stations | Coastal observations for WA | Marine services | Other Formats
Station Details ID: 009977 Name: MANDURAH Lat: -32.52 Lon: 115.71 Height: 3.0 m
Data from the previous 72 hours. | See also: Recent months at Mandurah
Date/Time
WST
Temp
°C
Wind Pressure Rain since
9am
mm
Weather Cloud Vis
km
Sea
Height
m
Swell
Dir  Spd
kts
Gust
kts
hPa Trend Height
m
Period
s
Dir
29/03:30pm 19.8 NW 25 33 1010.5 - 0.0 - - - - - - -
29/03:26pm 19.6 NW 23 33 1010.4 - 0.0 - - - - - - -
29/03:00pm 19.3 NNW 22 30 1010.1 - 0.0 - - - - - - -
29/02:30pm 19.2 NNW 21 28 1010.1 - 0.0 - - - - - - -
29/02:00pm 19.0 NNW 20 25 1010.3 - 0.0 - - - - - - -
29/01:30pm 17.4 N 13 16 1010.3 - 0.0 - - - - - - -
29/01:00pm 17.4 N 16 19 1010.8 - 0.0 - - - - - - -
29/12:30pm 17.3 N 18 24 1011.3 - 0.0 - - - - - - -
29/12:00pm 17.6 N 17 22 1011.9 - 0.0 - - - - - - -
29/11:30am 16.9 N 16 19 1012.7 - 0.0 - - - - - - -
29/11:00am 16.8 N 17 21 1013.0 - 0.0 - - - - - - -
29/10:30am 16.7 N 17 21 1013.4 - 0.0 - - - - - - -
29/10:00am 16.6 N 16 20 1013.7 - 0.0 - - - - - - -
29/09:30am 16.1 N 13 16 1014.0 - 0.0 - - - - - - -
29/09:00am 15.8 N 14 16 1014.2 - 0.0 - - - - - - -
29/08:30am 15.5 NNE 13 15 1014.4 - 0.0 - - - - - - -
29/08:00am 14.7 NNE 5 8 1014.9 - 0.0 - - - - - - -
29/07:30am 14.5 NNE 6 8 1015.1 - 0.0 - - - - - - -
29/07:00am 13.9 NNE 7 10 1015.2 - 0.0 - - - - - - -
29/06:30am 14.1 NNE 5 6 1015.2 - 0.0 - - - - - - -
29/06:00am 14.0 NE 4 5 1015.2 - 0.0 - - - - - - -
29/05:30am 13.9 ENE 3 4 1015.3 - 0.0 - - - - - - -
29/05:00am 13.3 ENE 2 3 1015.5 - 0.0 - - - - - - -
29/04:30am 13.1 CALM 0 2 1015.8 - 0.0 - - - - - - -
29/04:00am 13.2 ENE 1 2 1016.0 - 0.0 - - - - - - -
29/03:30am 13.0 ENE 3 4 1016.2 - 0.0 - - - - - - -
29/03:00am 12.3 ENE 1 3 1016.6 - 0.0 - - - - - - -
29/02:30am 12.5 ENE 2 3 1017.0 - 0.0 - - - - - - -
29/02:00am 12.2 ENE 2 3 1017.5 - 0.0 - - - - - - -
29/01:30am 12.2 E 5 7 1017.2 - 0.0 - - - - - - -
29/01:00am 13.1 SSE 3 4 1017.9 - 0.0 - - - - - - -
29/12:30am 13.5 SSE 2 4 1018.4 - 0.0 - - - - - - -
29/12:00am 13.6 SSE 3 4 1018.6 - 0.0 - - - - - - -
 
Date/Time
WST
Temp
°C
Wind Pressure Rain since
9am
mm
Weather Cloud Vis
km
Sea
Height
m
Swell
Dir  Spd
kts
Gust
kts
hPa Trend Height
m
Period
s
Dir
28/11:30pm 13.7 SSE 2 3 1018.8 - 0.0 - - - - - - -
28/11:00pm 13.9 SSE 1 2 1019.2 - 0.0 - - - - - - -
28/10:30pm 14.3 ESE 2 3 1019.6 - 0.0 - - - - - - -
28/10:00pm 14.4 ESE 3 5 1019.6 - 0.0 - - - - - - -
28/09:30pm 15.1 SE 3 5 1019.8 - 0.0 - - - - - - -
28/09:00pm 15.6 S 2 3 1020.2 - 0.0 - - - - - - -
28/08:30pm 15.6 S 2 3 1020.2 - 0.0 - - - - - - -
28/08:00pm 15.3 SW 2 3 1020.3 - 0.0 - - - - - - -
28/07:30pm 15.3 SW 1 1 1020.2 - 0.0 - - - - - - -
28/07:00pm 15.1 SW 2 2 1020.1 - 0.0 - - - - - - -
28/06:30pm 16.2 SW 1 2 1020.0 - 0.0 - - - - - - -
28/06:00pm 16.5 SW 1 2 1020.0 - 0.0 - - - - - - -
28/05:30pm 17.1 SW 3 5 1020.0 - 0.0 - - - - - - -
28/05:00pm 18.0 WSW 5 7 1019.7 - 0.0 - - - - - - -
28/04:30pm 18.4 W 3 4 1019.4 - 0.0 - - - - - - -
28/04:00pm 19.0 WSW 3 5 1019.4 - 0.0 - - - - - - -
28/03:30pm 19.1 SW 2 4 1019.1 - 0.0 - - - - - - -
28/03:00pm 19.0 WNW 2 4 1019.1 - 0.0 - - - - - - -
28/02:30pm 19.2 NW 1 2 1019.1 - 0.0 - - - - - - -
28/02:00pm 18.6 NW 5 6 1019.6 - 0.0 - - - - - - -
28/01:30pm 18.6 NW 5 7 1019.9 - 0.0 - - - - - - -
28/01:00pm 18.4 NW 1 2 1019.8 - 0.0 - - - - - - -
28/12:30pm 19.1 NW 4 5 1020.7 - 0.0 - - - - - - -
28/12:00pm 17.6 CALM 0 0 1020.9 - 0.0 - - - - - - -
28/11:30am 17.3 CALM 0 0 1021.2 - 0.0 - - - - - - -
28/11:00am 16.5 NE 1 2 1021.8 - 0.0 - - - - - - -
28/10:30am 16.3 NE 2 2 1022.1 - 0.0 - - - - - - -
28/10:00am 15.3 NE 4 6 1022.3 - 0.0 - - - - - - -
28/09:30am 14.8 NE 5 6 1022.6 - 0.0 - - - - - - -
28/09:00am 13.4 NE 1 2 1022.5 - 0.0 - - - - - - -
28/08:30am 13.0 NE 2 3 1022.3 - 0.0 - - - - - - -
28/08:00am 12.4 NE 1 3 1022.0 - 0.0 - - - - - - -
28/07:30am 12.4 NE 2 3 1021.7 - 0.0 - - - - - - -
28/07:00am 12.3 NE 1 3 1021.7 - 0.0 - - - - - - -
28/06:30am 11.9 CALM 0 0 1022.0 - 0.0 - - - - - - -
28/06:00am 11.9 CALM 0 0 1021.7 - 0.0 - - - - - - -
28/05:30am 12.3 CALM 0 0 1021.4 - 0.0 - - - - - - -
28/05:00am 12.6 NE 2 4 1021.1 - 0.0 - - - - - - -
28/04:30am 12.9 NE 1 2 1021.5 - 0.0 - - - - - - -
28/04:00am 12.9 CALM 0 0 1021.8 - 0.0 - - - - - - -
28/03:30am 13.0 CALM 0 1 1021.8 - 0.0 - - - - - - -
28/03:00am 12.9 NE 2 4 1021.7 - 0.0 - - - - - - -
28/02:30am 12.2 CALM 0 3 1022.0 - 0.0 - - - - - - -
28/02:00am 12.3 CALM 0 2 1022.6 - 0.0 - - - - - - -
28/01:30am 12.4 CALM 0 1 1022.2 - 0.0 - - - - - - -
28/01:00am 12.8 ENE 3 5 1022.2 - 0.0 - - - - - - -
28/12:30am 12.9 ENE 3 4 1022.1 - 0.0 - - - - - - -
28/12:00am 12.2 CALM 0 0 1022.7 - 0.0 - - - - - - -
 
Date/Time
WST
Temp
°C
Wind Pressure Rain since
9am
mm
Weather Cloud Vis
km
Sea
Height
m
Swell
Dir  Spd
kts
Gust
kts
hPa Trend Height
m
Period
s
Dir
27/11:30pm 12.6 CALM 0 0 1023.1 - 0.0 - - - - - - -
27/11:00pm 13.3 CALM 0 0 1023.1 - 0.0 - - - - - - -
27/10:30pm 13.6 E 4 6 1022.6 - 0.0 - - - - - - -
27/10:00pm 13.4 ESE 2 3 1023.5 - 0.0 - - - - - - -
27/09:30pm 13.5 ESE 3 5 1023.6 - 0.0 - - - - - - -
27/09:00pm 13.8 ESE 1 2 1024.0 - 0.0 - - - - - - -
27/08:30pm 14.1 ESE 2 3 1024.2 - 0.0 - - - - - - -
27/08:00pm 14.3 CALM 0 1 1024.4 - 0.0 - - - - - - -
27/07:30pm 14.6 W 1 2 1023.8 - 0.0 - - - - - - -
27/07:00pm 15.0 CALM 0 0 1023.6 - 0.0 - - - - - - -
27/06:30pm 14.9 CALM 0 0 1023.5 - 0.0 - - - - - - -
27/06:00pm 15.1 CALM 0 1 1023.8 - 0.0 - - - - - - -
27/05:30pm 15.6 CALM 0 0 1023.4 - 0.0 - - - - - - -
27/05:00pm 16.3 CALM 0 0 1022.8 - 0.0 - - - - - - -
27/04:30pm 16.7 W 1 2 1023.1 - 0.0 - - - - - - -
27/04:00pm 17.0 W 2 3 1023.3 - 0.0 - - - - - - -
27/03:30pm 16.7 WNW 4 5 1023.3 - 0.0 - - - - - - -
27/03:00pm 16.9 NW 3 3 1023.0 - 0.0 - - - - - - -
27/02:30pm 16.9 NNW 4 6 1023.0 - 0.0 - - - - - - -
27/02:00pm 17.3 N 3 4 1023.0 - 0.0 - - - - - - -
27/01:30pm 16.8 N 4 5 1023.7 - 0.0 - - - - - - -
27/01:00pm 17.0 N 5 6 1024.4 - 0.0 - - - - - - -
27/12:30pm 16.6 NNE 6 8 1024.8 - 0.0 - - - - - - -
27/12:00pm 16.2 NNE 7 9 1025.3 - 0.0 - - - - - - -
27/11:30am 16.0 NNE 6 9 1025.7 - 0.0 - - - - - - -
27/11:00am 15.3 NE 8 10 1026.0 - 0.0 - - - - - - -
27/10:30am 14.4 NE 8 10 1026.5 - 0.0 - - - - - - -
27/10:00am 14.3 NE 5 7 1026.8 - 0.0 - - - - - - -
27/09:30am 12.6 NE 6 7 1027.0 - 0.0 - - - - - - -
27/09:00am 11.4 ENE 3 6 1027.0 - 0.0 - - - - - - -
27/08:30am 9.9 ENE 4 5 1026.9 - 0.0 - - - - - - -
27/08:00am 9.4 ENE 3 5 1027.0 - 0.0 - - - - - - -
27/07:30am 8.7 E 3 5 1026.8 - 0.0 - - - - - - -
27/07:00am 8.9 ENE 2 4 1027.1 - 0.0 - - - - - - -
27/06:30am 9.4 ENE 2 4 1027.2 - 0.0 - - - - - - -
27/06:00am 9.6 E 1 2 1027.6 - 0.0 - - - - - - -
27/05:30am 9.8 E 2 3 1027.3 - 0.0 - - - - - - -
27/05:00am 9.5 E 2 4 1027.0 - 0.0 - - - - - - -
27/04:30am 9.2 CALM 0 1 1026.7 - 0.0 - - - - - - -
27/04:00am 9.3 E 2 4 1026.8 - 0.0 - - - - - - -
27/03:30am 9.6 CALM 0 0 1027.1 - 0.0 - - - - - - -
27/03:00am 9.9 E 2 4 1027.5 - 0.0 - - - - - - -
27/02:30am 10.1 E 3 5 1027.3 - 0.0 - - - - - - -
27/02:00am 9.7 ESE 2 3 1027.3 - 0.0 - - - - - - -
27/01:30am 9.3 CALM 0 0 1027.6 - 0.0 - - - - - - -
27/01:00am 9.6 ESE 1 1 1027.5 - 0.0 - - - - - - -
27/12:30am 9.9 SE 2 2 1027.5 - 0.0 - - - - - - -
27/12:00am 10.4 SE 2 3 1027.4 - 0.0 - - - - - - -
 
Date/Time
WST
Temp
°C
Wind Pressure Rain since
9am
mm
Weather Cloud Vis
km
Sea
Height
m
Swell
Dir  Spd
kts
Gust
kts
hPa Trend Height
m
Period
s
Dir
26/11:30pm 10.5 SE 2 3 1027.5 - 0.0 - - - - - - -
26/11:00pm 10.6 SE 3 3 1027.5 - 0.0 - - - - - - -
26/10:30pm 11.3 SE 3 4 1027.6 - 0.0 - - - - - - -
26/10:00pm 11.9 S 3 3 1027.9 - 0.0 - - - - - - -
26/09:30pm 12.9 S 2 3 1028.1 - 0.0 - - - - - - -
26/09:00pm 13.0 S 2 3 1028.3 - 0.0 - - - - - - -
26/08:30pm 13.1 S 2 2 1028.4 - 0.0 - - - - - - -
26/08:00pm 13.1 S 1 2 1028.2 - 0.0 - - - - - - -
26/07:30pm 13.5 CALM 0 0 1028.1 - 0.0 - - - - - - -
26/07:00pm 14.3 S 3 5 1027.8 - 0.0 - - - - - - -
26/06:30pm 14.4 SSW 2 3 1027.6 - 0.0 - - - - - - -
26/06:00pm 14.9 SSW 4 5 1027.4 - 0.0 - - - - - - -
26/05:30pm 15.6 SSW 5 7 1027.2 - 0.0 - - - - - - -
26/05:00pm 16.4 S 5 7 1027.1 - 0.0 - - - - - - -
26/04:30pm 16.7 S 5 7 1027.1 - 0.0 - - - - - - -
26/04:00pm 17.2 SSE 5 8 1026.9 - 0.0 - - - - - - -

Other Formats:

Comma delimited format used in spreadsheet applications
http://www.bom.gov.au/fwo/IDW60701/IDW60701.94605.axf

JavaScript Object Notation format (JSON) in row-major order
http://www.bom.gov.au/fwo/IDW60701/IDW60701.94605.json